This is the latest recevied weather packets stored in our database for station/object K7UHP. If no packets are shown the sender has not sent any weather packets the latest 10 day(s).
| Time | Temp. | Humidity | Pressure | Rain* | Wind** | Luminosity | Snow |
|---|---|---|---|---|---|---|---|
| 1778015578 | 12.78° C | 62% | 1011.6 hPa | 0.25 mm | - | - | - |
| 1778014948 | 13.33° C | 54% | 1011.6 hPa | 0.25 mm | - | - | - |
| 1778014348 | 13.89° C | 53% | 1011.8 hPa | 0 mm | - | - | - |
| 1778013718 | 13.89° C | 55% | 1011.9 hPa | 0 mm | - | - | - |
| 1778013088 | 13.89° C | 56% | 1011.8 hPa | 0 mm | - | - | - |
| 1778012488 | 13.89° C | 55% | 1011.7 hPa | 0 mm | - | - | - |
| 1778011888 | 14.44° C | 50% | 1011.6 hPa | 0 mm | - | - | - |
| 1778011258 | 14.44° C | 48% | 1011.4 hPa | 0 mm | - | - | - |
| 1778010628 | 14.44° C | 46% | 1011.4 hPa | 0 mm | - | - | - |
| 1778009998 | 14.44° C | 47% | 1011.3 hPa | 0 mm | - | - | - |
| 1778009398 | 14.44° C | 49% | 1011.3 hPa | 0 mm | - | - | - |
| 1778008768 | 14.44° C | 50% | 1011.3 hPa | 0 mm | - | - | - |
| 1778008168 | 13.89° C | 51% | 1011.3 hPa | 0 mm | - | - | - |
| 1778007538 | 13.89° C | 54% | 1011.4 hPa | 0 mm | - | - | - |
| 1778006908 | 13.89° C | 53% | 1011.5 hPa | 0 mm | - | - | - |
| 1778006277 | 13.89° C | 51% | 1011.5 hPa | 0 mm | - | - | - |
| 1778005677 | 13.89° C | 49% | 1011.5 hPa | 0 mm | - | - | - |
| 1778005048 | 13.89° C | 48% | 1011.5 hPa | 0 mm | - | - | - |
| 1778004418 | 13.89° C | 48% | 1011.5 hPa | 0 mm | - | - | - |
| 1778003788 | 13.89° C | 49% | 1011.3 hPa | 0 mm | - | - | - |
| 1778003188 | 14.44° C | 48% | 1011.4 hPa | 0 mm | - | - | - |
| 1778002557 | 14.44° C | 47% | 1011.3 hPa | 0 mm | - | - | - |
| 1778001928 | 15° C | 47% | 1011.2 hPa | 0 mm | - | - | - |
| 1778001327 | 14.44° C | 48% | 1011.3 hPa | 0 mm | - | - | - |
| 1778000727 | 14.44° C | 47% | 1011.2 hPa | 0 mm | - | - | - |
* Rain latest hour (hover to see other rain measurements)
** Current wind speed in m/s (hover to see current wind gust speed)